createdAt,value
2023-05-03T00:04:16.419Z,28.00
2023-05-03T00:09:17.420Z,27.70
2023-05-03T00:14:18.727Z,27.60
2023-05-03T00:19:30.613Z,25.60
2023-05-03T00:24:33.721Z,20.40
2023-05-03T00:29:34.826Z,22.30
2023-05-03T00:34:38.853Z,17.60
2023-05-03T00:39:40.121Z,19.60
2023-05-03T00:44:41.429Z,20.20
2023-05-03T00:49:43.837Z,20.00
2023-05-03T00:54:45.259Z,22.00
2023-05-03T00:59:46.617Z,17.70
2023-05-03T01:04:47.982Z,19.50
2023-05-03T01:10:01.096Z,19.00
2023-05-03T01:15:06.166Z,19.10
2023-05-03T01:20:11.019Z,27.90
2023-05-03T01:25:14.472Z,20.40
2023-05-03T01:35:28.291Z,25.90
2023-05-03T01:40:35.465Z,26.60
2023-05-03T01:45:36.723Z,26.00
2023-05-03T01:50:38.086Z,27.40
2023-05-03T01:55:39.328Z,23.20
2023-05-03T02:00:40.372Z,21.60
2023-05-03T02:05:41.475Z,29.60
2023-05-03T02:10:45.530Z,20.80
2023-05-03T02:15:46.529Z,27.20
2023-05-03T02:20:47.569Z,20.20
2023-05-03T02:25:49.102Z,19.20
2023-05-03T02:30:50.337Z,19.90
2023-05-03T02:35:51.501Z,20.40
2023-05-03T02:40:52.782Z,23.70
2023-05-03T02:45:53.983Z,20.90
2023-05-03T02:50:55.625Z,18.70
2023-05-03T02:55:57.208Z,19.10
2023-05-03T03:00:58.447Z,21.70
2023-05-03T03:06:00.250Z,24.30
2023-05-03T03:11:03.026Z,23.30
2023-05-03T03:16:06.344Z,23.70
2023-05-03T03:21:07.687Z,25.20
2023-05-03T03:26:09.331Z,21.70
2023-05-03T03:31:10.697Z,24.30
2023-05-03T03:36:12.011Z,25.20
2023-05-03T03:41:13.868Z,21.40
2023-05-03T03:46:16.540Z,27.60
2023-05-03T03:51:18.210Z,21.70
2023-05-03T03:56:21.185Z,25.40
2023-05-03T04:01:23.683Z,25.80
2023-05-03T04:06:26.526Z,25.30
2023-05-03T04:11:29.311Z,25.00
2023-05-03T04:16:33.156Z,30.90
2023-05-03T04:21:35.707Z,21.50
2023-05-03T04:26:37.579Z,20.70
2023-05-03T04:31:43.775Z,21.50
2023-05-03T04:36:45.836Z,17.70
2023-05-03T04:41:47.339Z,18.80
2023-05-03T04:46:50.915Z,15.70
2023-05-03T04:56:56.852Z,18.70
2023-05-03T05:01:59.723Z,11.50
2023-05-03T05:07:00.989Z,14.40
2023-05-03T05:12:03.933Z,8.00
2023-05-03T05:17:09.256Z,16.10
2023-05-03T05:22:10.530Z,12.80
2023-05-03T05:27:17.028Z,9.70
2023-05-03T05:32:18.462Z,15.10
2023-05-03T05:37:24.262Z,12.20
2023-05-03T05:42:26.305Z,7.30
2023-05-03T05:47:27.996Z,10.30
2023-05-03T05:52:30.727Z,11.00
2023-05-03T05:57:32.102Z,18.80
2023-05-03T06:02:33.614Z,13.20
2023-05-03T06:07:35.317Z,9.70
2023-05-03T06:12:37.013Z,11.00
2023-05-03T06:17:40.348Z,9.00
2023-05-03T06:22:41.808Z,8.40
2023-05-03T06:27:44.499Z,12.10
2023-05-03T06:32:47.219Z,12.60
2023-05-03T06:37:48.833Z,10.00
2023-05-03T06:42:49.914Z,7.50
2023-05-03T06:47:58.267Z,13.30
2023-05-03T06:52:59.471Z,13.30
2023-05-03T06:58:00.803Z,11.10
2023-05-03T07:03:01.906Z,7.80
2023-05-03T07:08:08.780Z,12.50
2023-05-03T07:13:10.118Z,9.80
2023-05-03T07:18:11.082Z,10.30
2023-05-03T07:23:12.200Z,8.50
2023-05-03T07:28:13.324Z,13.80
2023-05-03T07:33:14.469Z,9.10
2023-05-03T07:38:16.176Z,8.30
2023-05-03T07:43:18.966Z,11.30
2023-05-03T07:48:20.069Z,8.40
2023-05-03T07:53:21.141Z,12.30
2023-05-03T07:58:31.439Z,9.60
2023-05-03T08:03:40.698Z,9.20
2023-05-03T08:08:42.260Z,11.40
2023-05-03T08:13:43.246Z,13.80
2023-05-03T08:18:45.299Z,10.10
2023-05-03T08:23:46.432Z,13.30
2023-05-03T08:28:47.507Z,7.70
2023-05-03T08:33:48.703Z,12.40
2023-05-03T08:38:49.943Z,12.00
2023-05-03T08:43:53.612Z,14.20
2023-05-03T08:48:55.286Z,24.60
2023-05-03T08:53:56.245Z,21.60
2023-05-03T08:59:04.248Z,22.50
2023-05-03T09:04:06.413Z,28.10
2023-05-03T09:09:30.793Z,8.90
2023-05-03T09:14:42.618Z,22.70
2023-05-03T09:19:51.996Z,8.80
2023-05-03T09:24:55.505Z,9.00
2023-05-03T09:29:56.724Z,8.00
2023-05-03T09:35:08.925Z,22.30
2023-05-03T09:40:11.708Z,23.50
2023-05-03T09:45:23.148Z,14.10
2023-05-03T09:50:24.980Z,19.70
2023-05-03T09:55:27.386Z,18.60
2023-05-03T10:00:29.939Z,31.20
2023-05-03T10:05:33.006Z,22.40
2023-05-03T10:10:34.956Z,11.70
2023-05-03T10:15:38.714Z,33.70
2023-05-03T10:20:44.995Z,21.60
2023-05-03T10:26:12.746Z,14.50
2023-05-03T10:31:46.323Z,20.30
2023-05-03T10:36:50.218Z,12.60
2023-05-03T10:41:59.107Z,11.50
2023-05-03T10:47:12.183Z,12.30
2023-05-03T10:52:35.221Z,12.00
2023-05-03T10:57:40.364Z,12.50
2023-05-03T11:03:25.405Z,23.70
2023-05-03T11:08:27.347Z,11.10
2023-05-03T11:13:28.623Z,10.70
2023-05-03T11:18:31.183Z,8.30
2023-05-03T11:23:32.403Z,11.00
2023-05-03T11:28:33.462Z,18.30
2023-05-03T11:33:36.943Z,13.40
2023-05-03T11:38:38.869Z,13.00
2023-05-03T11:43:44.806Z,8.50
2023-05-03T11:48:46.438Z,9.50
2023-05-03T11:53:47.969Z,10.60
2023-05-03T11:58:59.365Z,8.20
2023-05-03T12:04:03.310Z,12.60
2023-05-03T12:09:14.616Z,11.70
2023-05-03T12:14:16.184Z,8.00
2023-05-03T12:19:32.060Z,20.00
2023-05-03T12:24:34.617Z,16.00
2023-05-03T12:29:36.295Z,7.80
2023-05-03T12:34:40.910Z,11.30
2023-05-03T12:39:45.927Z,10.40
2023-05-03T12:44:53.690Z,10.00
2023-05-03T12:49:57.574Z,6.80
2023-05-03T12:55:03.661Z,9.30
2023-05-03T13:00:14.051Z,10.50
2023-05-03T13:05:26.801Z,8.60
2023-05-03T13:10:36.516Z,15.20
2023-05-03T13:15:37.951Z,8.90
2023-05-03T13:20:39.005Z,12.30
2023-05-03T13:25:40.379Z,11.60
2023-05-03T13:30:41.594Z,5.10
2023-05-03T13:35:42.775Z,11.10
2023-05-03T13:40:43.963Z,7.40
2023-05-03T13:45:45.009Z,7.00
2023-05-03T13:50:46.108Z,10.30
2023-05-03T13:55:47.360Z,5.70
2023-05-03T14:00:48.453Z,10.40
2023-05-03T14:05:49.492Z,9.70
2023-05-03T14:10:50.517Z,7.20
2023-05-03T14:15:51.727Z,9.80
2023-05-03T14:20:53.370Z,13.30
2023-05-03T14:25:54.419Z,8.20
2023-05-03T14:30:56.120Z,6.70
2023-05-03T14:35:57.714Z,6.00
2023-05-03T14:40:58.876Z,43.80
2023-05-03T14:46:01.135Z,12.30
2023-05-03T14:51:03.140Z,10.80
2023-05-03T14:56:04.304Z,4.50
2023-05-03T15:01:05.780Z,4.70
2023-05-03T15:06:07.432Z,6.80
2023-05-03T15:11:09.514Z,3.70
2023-05-03T15:16:10.983Z,12.60
2023-05-03T15:21:12.303Z,10.20
2023-05-03T15:26:13.731Z,14.20
2023-05-03T15:31:15.560Z,20.30
2023-05-03T15:36:16.812Z,15.60
2023-05-03T15:41:18.331Z,22.50
2023-05-03T15:46:19.369Z,19.20
2023-05-03T15:51:20.857Z,4.70
2023-05-03T15:56:22.099Z,7.00
2023-05-03T16:01:24.087Z,5.00
2023-05-03T16:06:25.258Z,6.50
2023-05-03T16:11:26.442Z,5.50
2023-05-03T16:16:27.548Z,6.40
2023-05-03T16:21:28.846Z,8.70
2023-05-03T16:26:31.158Z,11.20
2023-05-03T16:31:32.624Z,7.20
2023-05-03T16:36:34.478Z,5.50
2023-05-03T16:41:36.252Z,6.10
2023-05-03T16:46:39.470Z,24.90
2023-05-03T16:51:40.957Z,11.60
2023-05-03T16:56:44.749Z,9.50
2023-05-03T17:01:46.015Z,17.60
2023-05-03T17:06:47.822Z,29.30
2023-05-03T17:11:48.884Z,9.90
2023-05-03T17:16:50.600Z,24.20
2023-05-03T17:21:52.023Z,12.00
2023-05-03T17:26:54.797Z,6.90
2023-05-03T17:31:56.020Z,9.20
2023-05-03T17:36:59.603Z,9.00
2023-05-03T17:42:00.968Z,6.60
2023-05-03T17:47:03.071Z,21.70
2023-05-03T17:52:04.273Z,12.20
2023-05-03T17:57:06.288Z,13.40
2023-05-03T18:02:07.540Z,10.50
2023-05-03T18:07:08.841Z,13.80
2023-05-03T18:12:10.035Z,12.20
2023-05-03T18:17:11.069Z,11.60
2023-05-03T18:22:12.637Z,20.50
2023-05-03T18:27:13.700Z,16.20
2023-05-03T18:32:15.057Z,17.80
2023-05-03T18:37:16.126Z,18.50
2023-05-03T18:42:19.849Z,23.00
2023-05-03T18:47:21.344Z,19.90
2023-05-03T18:52:23.037Z,29.90
2023-05-03T18:57:26.711Z,23.90
2023-05-03T19:07:31.716Z,35.00
2023-05-03T19:12:34.364Z,58.80
2023-05-03T19:17:36.316Z,57.80
2023-05-03T19:22:37.585Z,59.40
2023-05-03T19:27:38.919Z,106.20
2023-05-03T19:32:40.103Z,76.30
2023-05-03T19:37:43.117Z,74.00
2023-05-03T19:42:44.385Z,86.90
2023-05-03T19:47:45.527Z,74.80
2023-05-03T19:52:46.633Z,49.20
2023-05-03T19:57:48.744Z,15.80
2023-05-03T20:02:51.796Z,13.00
2023-05-03T20:07:53.039Z,19.40
2023-05-03T20:12:54.095Z,14.70
2023-05-03T20:17:55.623Z,17.80
2023-05-03T20:22:56.856Z,20.90
2023-05-03T20:27:57.831Z,25.90
2023-05-03T20:32:58.979Z,21.60
2023-05-03T20:38:00.292Z,23.60
2023-05-03T20:43:01.667Z,23.90
2023-05-03T20:48:02.814Z,34.90
2023-05-03T20:53:03.964Z,58.10
2023-05-03T20:58:05.272Z,59.00
2023-05-03T21:03:06.432Z,52.60
2023-05-03T21:08:07.528Z,30.90
2023-05-03T21:13:13.114Z,29.00
2023-05-03T21:18:14.236Z,22.40
2023-05-03T21:23:15.260Z,27.40
2023-05-03T21:28:16.545Z,18.80
2023-05-03T21:33:17.714Z,25.60
2023-05-03T21:38:19.187Z,29.40
2023-05-03T21:43:40.209Z,30.70
2023-05-03T21:49:01.204Z,25.30
2023-05-03T21:54:02.356Z,30.10
2023-05-03T21:59:03.375Z,35.40
2023-05-03T22:04:04.837Z,27.10
2023-05-03T22:09:06.307Z,20.90
2023-05-03T22:14:08.327Z,24.00
2023-05-03T22:19:11.260Z,25.70
2023-05-03T22:24:12.331Z,21.60
2023-05-03T22:29:13.829Z,18.80
2023-05-03T22:34:15.284Z,17.60
2023-05-03T22:39:16.624Z,17.30
2023-05-03T22:44:17.605Z,15.60
2023-05-03T22:49:18.972Z,18.80
2023-05-03T22:54:21.204Z,21.90
2023-05-03T22:59:22.348Z,19.70
2023-05-03T23:04:23.568Z,32.10
2023-05-03T23:09:25.777Z,25.00
2023-05-03T23:14:34.559Z,24.40
2023-05-03T23:19:36.408Z,25.70
2023-05-03T23:24:38.801Z,22.30
2023-05-03T23:29:39.986Z,24.00
2023-05-03T23:34:46.146Z,18.70
2023-05-03T23:40:07.807Z,22.20
2023-05-03T23:45:09.711Z,22.50
2023-05-03T23:50:15.439Z,23.40
2023-05-03T23:55:16.498Z,33.10
